createdAt,value
2019-02-26T00:01:01.881Z,28.38
2019-02-26T00:03:32.700Z,28.12
2019-02-26T00:06:02.079Z,21.80
2019-02-26T00:08:33.597Z,20.05
2019-02-26T00:11:03.749Z,22.22
2019-02-26T00:13:36.059Z,26.27
2019-02-26T00:16:07.721Z,32.13
2019-02-26T00:18:34.615Z,29.57
2019-02-26T00:21:05.035Z,23.50
2019-02-26T00:23:34.105Z,35.70
2019-02-26T00:26:03.018Z,24.12
2019-02-26T00:28:31.889Z,19.62
2019-02-26T00:31:01.765Z,23.27
2019-02-26T00:33:31.348Z,20.85
2019-02-26T00:36:00.200Z,21.05
2019-02-26T00:38:29.181Z,18.17
2019-02-26T00:41:00.019Z,21.07
2019-02-26T00:43:30.629Z,19.70
2019-02-26T00:46:00.751Z,18.15
2019-02-26T00:48:31.519Z,19.37
2019-02-26T00:51:01.137Z,19.48
2019-02-26T00:53:33.241Z,18.98
2019-02-26T00:56:03.346Z,23.62
2019-02-26T00:58:37.074Z,20.90
2019-02-26T01:01:03.563Z,16.25
2019-02-26T01:03:32.486Z,20.50
2019-02-26T01:06:02.039Z,17.12
2019-02-26T01:08:35.814Z,18.95
2019-02-26T01:11:07.774Z,18.37
2019-02-26T01:13:36.547Z,25.08
2019-02-26T01:16:05.504Z,24.43
2019-02-26T01:18:34.454Z,18.17
2019-02-26T01:21:04.308Z,19.07
2019-02-26T01:23:33.296Z,19.12
2019-02-26T01:26:02.200Z,19.52
2019-02-26T01:28:31.028Z,16.62
2019-02-26T01:31:00.369Z,19.80
2019-02-26T01:33:32.176Z,19.20
2019-02-26T01:36:02.685Z,20.23
2019-02-26T01:38:31.639Z,17.20
2019-02-26T01:41:00.631Z,18.85
2019-02-26T01:43:29.543Z,18.48
2019-02-26T01:45:58.370Z,17.98
2019-02-26T01:48:27.212Z,17.40
2019-02-26T01:50:57.396Z,17.12
2019-02-26T01:53:27.393Z,20.10
2019-02-26T02:10:37.096Z,17.10
2019-02-26T02:13:07.158Z,15.95
2019-02-26T02:15:37.908Z,18.40
2019-02-26T02:18:07.372Z,17.52
2019-02-26T02:20:36.303Z,15.60
2019-02-26T02:23:06.985Z,16.93
2019-02-26T02:25:38.013Z,17.95
2019-02-26T02:28:06.567Z,16.17
2019-02-26T02:30:38.906Z,18.73
2019-02-26T02:33:06.203Z,17.02
2019-02-26T02:35:35.123Z,18.50
2019-02-26T02:38:04.926Z,17.37
2019-02-26T02:40:34.013Z,20.27
2019-02-26T02:43:04.536Z,19.92
2019-02-26T02:45:33.637Z,22.77
2019-02-26T02:48:03.254Z,20.35
2019-02-26T02:50:33.140Z,23.90
2019-02-26T02:53:03.955Z,19.87
2019-02-26T02:55:37.772Z,23.47
2019-02-26T02:58:06.592Z,20.97
2019-02-26T03:00:35.556Z,24.75
2019-02-26T03:03:04.729Z,19.80
2019-02-26T03:05:35.215Z,19.90
2019-02-26T03:08:04.326Z,20.12
2019-02-26T03:10:34.585Z,17.00
2019-02-26T03:13:03.787Z,18.75
2019-02-26T03:15:35.671Z,17.15
2019-02-26T03:18:04.140Z,15.88
2019-02-26T03:20:37.240Z,23.45
2019-02-26T03:23:06.494Z,20.08
2019-02-26T03:25:35.124Z,18.00
2019-02-26T03:28:04.160Z,15.63
2019-02-26T03:30:38.579Z,18.25
2019-02-26T03:33:04.603Z,15.38
2019-02-26T03:35:33.850Z,16.70
2019-02-26T03:38:03.646Z,15.80
2019-02-26T03:40:34.103Z,17.05
2019-02-26T03:43:04.531Z,15.83
2019-02-26T03:45:34.092Z,19.10
2019-02-26T03:48:03.069Z,16.42
2019-02-26T03:50:31.971Z,17.90
2019-02-26T03:53:00.983Z,15.95
2019-02-26T03:55:31.764Z,17.55
2019-02-26T03:58:02.571Z,17.77
2019-02-26T04:00:32.450Z,15.65
2019-02-26T04:03:03.546Z,16.17
2019-02-26T04:05:32.738Z,18.60
2019-02-26T04:08:04.254Z,20.40
2019-02-26T04:10:32.445Z,17.52
2019-02-26T04:13:01.295Z,18.05
2019-02-26T04:15:32.792Z,17.37
2019-02-26T04:18:00.834Z,13.78
2019-02-26T04:20:29.746Z,17.23
2019-02-26T04:22:58.612Z,16.00
2019-02-26T04:25:33.351Z,18.73
2019-02-26T04:28:10.827Z,20.05
2019-02-26T04:31:04.216Z,18.12
2019-02-26T04:34:01.808Z,19.30
2019-02-26T04:37:01.575Z,19.40
2019-02-26T04:40:11.029Z,20.35
2019-02-26T04:43:13.033Z,16.82
2019-02-26T04:46:25.552Z,19.07
2019-02-26T04:48:55.516Z,17.65
2019-02-26T04:51:24.349Z,19.62
2019-02-26T04:53:54.172Z,20.95
2019-02-26T04:56:23.960Z,16.65
2019-02-26T04:58:53.069Z,20.12
2019-02-26T05:01:22.076Z,18.05
2019-02-26T05:03:51.074Z,17.23
2019-02-26T05:06:20.004Z,23.35
2019-02-26T05:08:48.921Z,19.10
2019-02-26T05:11:31.187Z,17.17
2019-02-26T05:13:48.421Z,18.87
2019-02-26T05:16:17.354Z,18.75
2019-02-26T05:18:48.512Z,20.70
2019-02-26T05:21:16.763Z,19.35
2019-02-26T05:23:46.475Z,20.55
2019-02-26T05:26:18.728Z,16.95
2019-02-26T05:28:49.044Z,17.12
2019-02-26T05:31:17.639Z,20.92
2019-02-26T05:33:47.632Z,17.85
2019-02-26T05:36:17.432Z,18.17
2019-02-26T05:38:46.468Z,19.25
2019-02-26T05:41:15.305Z,18.23
2019-02-26T05:43:49.418Z,17.12
2019-02-26T05:46:15.924Z,19.02
2019-02-26T05:48:46.211Z,20.60
2019-02-26T05:51:16.223Z,18.55
2019-02-26T05:53:45.136Z,19.80
2019-02-26T05:56:14.564Z,19.98
2019-02-26T05:58:46.983Z,18.73
2019-02-26T06:01:18.518Z,17.48
2019-02-26T06:03:46.730Z,18.20
2019-02-26T06:06:16.307Z,22.65
2019-02-26T06:08:45.454Z,20.23
2019-02-26T06:11:16.983Z,23.75
2019-02-26T06:13:45.051Z,19.12
2019-02-26T06:16:13.897Z,19.95
2019-02-26T06:18:44.085Z,18.98
2019-02-26T06:21:15.940Z,19.75
2019-02-26T06:23:48.942Z,16.40
2019-02-26T06:26:18.107Z,21.93
2019-02-26T06:28:52.871Z,22.40
2019-02-26T06:31:24.671Z,17.32
2019-02-26T06:33:53.106Z,18.82
2019-02-26T06:36:23.382Z,17.50
2019-02-26T06:38:54.033Z,17.12
2019-02-26T06:41:23.489Z,17.45
2019-02-26T06:43:53.228Z,19.95
2019-02-26T06:46:22.948Z,19.32
2019-02-26T06:48:51.844Z,22.22
2019-02-26T06:51:21.929Z,20.00
2019-02-26T06:53:52.220Z,17.30
2019-02-26T06:56:22.028Z,20.95
2019-02-26T06:58:51.021Z,17.12
2019-02-26T07:01:19.913Z,21.60
2019-02-26T07:03:48.850Z,19.25
2019-02-26T07:06:20.612Z,19.80
2019-02-26T07:08:48.987Z,20.45
2019-02-26T07:11:19.111Z,19.23
2019-02-26T07:13:48.147Z,20.52
2019-02-26T07:16:18.129Z,21.87
2019-02-26T07:18:47.865Z,21.27
2019-02-26T07:21:16.786Z,20.08
2019-02-26T07:23:45.778Z,19.32
2019-02-26T07:26:16.066Z,19.12
2019-02-26T07:28:46.942Z,20.20
2019-02-26T07:31:15.968Z,22.40
2019-02-26T07:33:44.992Z,20.32
2019-02-26T07:36:16.052Z,21.30
2019-02-26T07:38:47.228Z,18.85
2019-02-26T07:41:15.376Z,21.97
2019-02-26T07:43:46.868Z,19.90
2019-02-26T07:46:17.052Z,25.08
2019-02-26T07:48:46.144Z,20.57
2019-02-26T07:51:16.360Z,20.05
2019-02-26T07:53:48.724Z,24.37
2019-02-26T07:56:16.088Z,20.72
2019-02-26T07:58:47.521Z,21.02
2019-02-26T08:01:18.420Z,21.30
2019-02-26T08:03:48.794Z,24.30
2019-02-26T08:06:18.118Z,26.20
2019-02-26T08:08:48.939Z,23.70
2019-02-26T08:11:17.998Z,20.97
2019-02-26T08:13:47.116Z,21.85
2019-02-26T08:16:18.185Z,20.35
2019-02-26T08:18:47.386Z,26.05
2019-02-26T08:21:20.283Z,22.60
2019-02-26T09:04:31.873Z,25.35
2019-02-26T09:07:03.886Z,25.88
2019-02-26T09:09:33.242Z,21.15
2019-02-26T09:12:03.226Z,23.92
2019-02-26T09:14:37.155Z,19.87
2019-02-26T09:17:04.562Z,20.52
2019-02-26T09:19:35.477Z,21.93
2019-02-26T09:22:04.808Z,20.75
2019-02-26T09:24:33.725Z,23.47
2019-02-26T09:27:05.021Z,22.77
2019-02-26T09:29:36.764Z,27.15
2019-02-26T09:32:07.380Z,29.20
2019-02-26T09:34:37.826Z,28.00
2019-02-26T09:37:08.019Z,29.20
2019-02-26T09:39:39.067Z,26.60
2019-02-26T09:42:09.213Z,23.27
2019-02-26T09:44:38.312Z,24.60
2019-02-26T09:47:07.563Z,25.77
2019-02-26T09:49:36.755Z,21.87
2019-02-26T09:52:06.554Z,20.82
2019-02-26T09:54:40.238Z,23.30
2019-02-26T09:57:06.423Z,26.30
2019-02-26T09:59:35.914Z,23.22
2019-02-26T10:02:06.188Z,25.82
2019-02-26T10:04:35.206Z,25.00
2019-02-26T10:07:09.228Z,23.77
2019-02-26T10:09:40.736Z,21.33
2019-02-26T10:12:09.959Z,23.47
2019-02-26T10:14:38.586Z,24.57
2019-02-26T10:17:09.208Z,25.23
2019-02-26T10:19:40.552Z,24.25
2019-02-26T10:22:10.830Z,20.90
2019-02-26T10:24:40.532Z,19.17
2019-02-26T10:27:11.451Z,23.20
2019-02-26T10:29:44.416Z,22.42
2019-02-26T10:32:11.951Z,24.47
2019-02-26T10:34:40.939Z,23.60
2019-02-26T10:37:10.038Z,22.75
2019-02-26T10:39:39.025Z,21.70
2019-02-26T10:42:07.933Z,23.10
2019-02-26T10:44:36.935Z,23.50
2019-02-26T10:47:08.211Z,21.85
2019-02-26T10:49:36.507Z,23.70
2019-02-26T10:52:05.499Z,23.02
2019-02-26T10:54:39.297Z,20.57
2019-02-26T10:57:07.447Z,18.55
2019-02-26T10:59:35.918Z,20.23
2019-02-26T11:02:04.913Z,22.35
2019-02-26T11:04:35.620Z,22.87
2019-02-26T11:07:10.988Z,23.12
2019-02-26T11:09:38.236Z,24.32
2019-02-26T11:12:08.606Z,21.68
2019-02-26T11:14:39.594Z,22.00
2019-02-26T11:17:08.323Z,22.77
2019-02-26T11:19:39.583Z,20.30
2019-02-26T11:22:07.928Z,22.70
2019-02-26T11:24:36.930Z,19.67
2019-02-26T11:27:05.856Z,18.80
2019-02-26T11:29:36.406Z,17.67
2019-02-26T11:32:07.588Z,19.98
2019-02-26T11:34:38.236Z,17.50
2019-02-26T11:37:08.827Z,17.75
2019-02-26T11:39:37.470Z,16.62
2019-02-26T11:42:06.436Z,20.55
2019-02-26T11:44:35.361Z,17.98
2019-02-26T11:47:04.321Z,18.65
2019-02-26T11:49:34.906Z,17.37
2019-02-26T11:52:06.999Z,17.17
2019-02-26T11:54:37.316Z,18.45
2019-02-26T11:57:08.062Z,15.60
2019-02-26T11:59:38.574Z,18.82
2019-02-26T12:02:08.107Z,15.83
2019-02-26T12:04:37.119Z,16.90
2019-02-26T12:07:07.440Z,16.23
2019-02-26T12:09:40.302Z,16.35
2019-02-26T12:12:09.213Z,14.23
2019-02-26T12:14:40.409Z,15.48
2019-02-26T12:17:08.815Z,16.62
2019-02-26T12:19:37.684Z,13.98
2019-02-26T12:22:06.648Z,12.50
2019-02-26T12:24:36.230Z,13.45
2019-02-26T12:27:07.378Z,13.32
2019-02-26T12:29:36.041Z,15.90
2019-02-26T12:32:05.037Z,15.00
2019-02-26T12:34:35.235Z,13.85
2019-02-26T12:37:08.711Z,13.40
2019-02-26T12:39:36.005Z,12.53
2019-02-26T12:42:07.337Z,12.20
2019-02-26T12:44:39.422Z,13.60
2019-02-26T12:47:07.681Z,12.13
2019-02-26T12:49:39.162Z,12.50
2019-02-26T12:52:10.771Z,11.50
2019-02-26T12:54:42.740Z,13.28
2019-02-26T12:57:12.120Z,12.88
2019-02-26T12:59:42.406Z,11.93
2019-02-26T13:02:13.989Z,14.68
2019-02-26T13:04:44.534Z,14.80
2019-02-26T13:07:12.709Z,12.68
2019-02-26T13:09:47.929Z,13.18
2019-02-26T13:12:16.864Z,13.30
2019-02-26T13:14:43.033Z,10.88
2019-02-26T13:17:13.835Z,13.95
2019-02-26T13:19:49.102Z,14.38
2019-02-26T13:22:18.003Z,16.25
2019-02-26T13:24:50.392Z,14.50
2019-02-26T13:27:19.336Z,18.23
2019-02-26T13:29:54.559Z,16.23
2019-02-26T13:32:21.193Z,16.48
2019-02-26T13:34:51.558Z,16.70
2019-02-26T13:37:20.298Z,16.80
2019-02-26T13:39:49.243Z,15.53
2019-02-26T13:42:19.679Z,15.35
2019-02-26T13:44:48.890Z,16.32
2019-02-26T13:47:17.842Z,16.25
2019-02-26T13:49:46.783Z,15.05
2019-02-26T13:52:15.793Z,14.65
2019-02-26T13:54:44.709Z,12.33
2019-02-26T13:57:13.713Z,13.68
2019-02-26T13:59:42.722Z,14.98
2019-02-26T14:02:11.688Z,13.45
2019-02-26T14:04:43.337Z,11.83
2019-02-26T14:07:12.456Z,14.65
2019-02-26T14:09:41.386Z,12.53
2019-02-26T14:12:10.494Z,12.10
2019-02-26T14:14:39.572Z,12.18
2019-02-26T14:17:08.629Z,12.88
2019-02-26T14:19:37.489Z,12.47
2019-02-26T14:22:06.462Z,12.88
2019-02-26T14:24:35.764Z,13.68
2019-02-26T14:27:04.840Z,13.13
2019-02-26T14:29:33.720Z,14.50
2019-02-26T14:32:02.660Z,12.40
2019-02-26T14:34:31.560Z,11.30
2019-02-26T14:37:00.559Z,11.12
2019-02-26T14:39:29.507Z,12.40
2019-02-26T14:41:58.555Z,13.10
2019-02-26T14:44:27.587Z,12.73
2019-02-26T14:46:56.613Z,16.73
2019-02-26T14:49:25.525Z,13.85
2019-02-26T14:51:54.536Z,11.83
2019-02-26T14:54:23.596Z,14.35
2019-02-26T14:56:52.618Z,12.35
2019-02-26T14:59:21.568Z,14.50
2019-02-26T15:01:50.745Z,13.93
2019-02-26T15:04:19.682Z,14.03
2019-02-26T15:06:48.547Z,11.63
2019-02-26T15:09:17.504Z,12.35
2019-02-26T15:11:46.917Z,15.58
2019-02-26T15:14:15.802Z,13.65
2019-02-26T15:16:44.865Z,11.88
2019-02-26T15:19:13.842Z,10.90
2019-02-26T15:21:42.901Z,15.38
2019-02-26T15:24:12.083Z,12.75
2019-02-26T15:26:41.029Z,13.55
2019-02-26T15:29:09.940Z,14.60
2019-02-26T15:31:39.641Z,13.98
2019-02-26T15:34:13.935Z,14.03
2019-02-26T15:36:43.051Z,12.73
2019-02-26T15:39:11.956Z,13.43
2019-02-26T15:41:41.094Z,13.22
2019-02-26T15:44:11.863Z,13.32
2019-02-26T15:46:40.800Z,13.32
2019-02-26T15:49:09.863Z,15.38
2019-02-26T15:51:38.889Z,14.00
2019-02-26T15:54:07.845Z,12.33
2019-02-26T15:56:36.821Z,12.20
2019-02-26T15:59:05.988Z,14.07
2019-02-26T16:01:35.157Z,14.63
2019-02-26T16:04:04.246Z,15.95
2019-02-26T16:06:33.274Z,13.00
2019-02-26T16:09:02.411Z,15.98
2019-02-26T16:11:31.524Z,13.80
2019-02-26T16:14:00.530Z,13.38
2019-02-26T16:16:29.396Z,14.80
2019-02-26T16:19:00.333Z,13.65
2019-02-26T16:21:28.879Z,13.35
2019-02-26T16:23:57.936Z,12.30
2019-02-26T16:26:26.774Z,15.98
2019-02-26T16:28:56.456Z,14.68
2019-02-26T16:31:29.586Z,13.22
2019-02-26T16:33:56.238Z,13.48
2019-02-26T16:36:25.233Z,18.37
2019-02-26T16:38:54.267Z,15.28
2019-02-26T16:41:23.244Z,15.85
2019-02-26T16:43:52.441Z,15.05
2019-02-26T16:46:21.453Z,14.33
2019-02-26T16:48:53.204Z,15.65
2019-02-26T16:51:21.802Z,14.10
2019-02-26T16:53:54.705Z,14.83
2019-02-26T16:56:23.729Z,13.75
2019-02-26T16:58:52.848Z,17.73
2019-02-26T17:01:22.539Z,15.58
2019-02-26T17:03:51.661Z,14.33
2019-02-26T17:06:21.159Z,13.15
2019-02-26T17:08:50.200Z,13.13
2019-02-26T17:11:19.480Z,15.63
2019-02-26T17:13:48.516Z,14.75
2019-02-26T17:16:17.525Z,15.83
2019-02-26T17:18:52.016Z,14.85
2019-02-26T17:21:21.019Z,15.03
2019-02-26T17:23:50.098Z,15.32
2019-02-26T17:26:20.328Z,15.43
2019-02-26T17:28:49.379Z,15.30
2019-02-26T17:31:18.405Z,15.40
2019-02-26T17:33:47.300Z,16.45
2019-02-26T17:36:16.246Z,16.40
2019-02-26T17:38:45.473Z,16.30
2019-02-26T17:41:16.085Z,14.63
2019-02-26T17:43:45.049Z,15.03
2019-02-26T17:46:13.965Z,15.23
2019-02-26T17:48:43.771Z,17.02
2019-02-26T17:51:12.899Z,19.42
2019-02-26T17:53:41.834Z,18.15
2019-02-26T17:56:10.744Z,20.27
2019-02-26T17:58:41.723Z,21.02
2019-02-26T18:01:11.119Z,20.23
2019-02-26T18:03:40.090Z,19.92
2019-02-26T18:06:10.713Z,19.90
2019-02-26T18:08:39.745Z,20.08
2019-02-26T18:11:08.811Z,22.02
2019-02-26T18:13:37.809Z,26.20
2019-02-26T18:16:09.422Z,26.45
2019-02-26T18:18:37.611Z,22.07
2019-02-26T18:21:06.671Z,25.62
2019-02-26T18:23:37.640Z,28.62
2019-02-26T18:26:06.297Z,30.92
2019-02-26T18:28:36.750Z,32.42
2019-02-26T18:31:05.925Z,32.28
2019-02-26T18:33:36.201Z,26.73
2019-02-26T18:36:05.356Z,25.60
2019-02-26T18:38:34.227Z,22.48
2019-02-26T18:41:03.187Z,21.23
2019-02-26T18:43:32.133Z,22.82
2019-02-26T18:46:01.323Z,24.02
2019-02-26T18:48:30.332Z,20.68
2019-02-26T18:50:59.718Z,19.17
2019-02-26T18:53:30.028Z,22.13
2019-02-26T18:55:58.935Z,24.37
2019-02-26T18:58:27.926Z,23.05
2019-02-26T19:00:58.674Z,20.32
2019-02-26T19:03:27.783Z,21.87
2019-02-26T19:05:56.812Z,19.12
2019-02-26T19:08:25.808Z,19.90
2019-02-26T19:10:54.844Z,16.93
2019-02-26T19:13:23.784Z,21.82
2019-02-26T19:15:52.765Z,17.75
2019-02-26T19:18:21.698Z,19.52
2019-02-26T19:20:50.759Z,19.98
2019-02-26T19:23:19.640Z,19.77
2019-02-26T19:25:48.607Z,19.57
2019-02-26T19:28:17.594Z,23.35
2019-02-26T19:30:46.595Z,17.60
2019-02-26T19:33:15.671Z,22.42
2019-02-26T19:35:44.553Z,21.30
2019-02-26T19:38:13.500Z,23.65
2019-02-26T19:40:42.798Z,20.75
2019-02-26T19:43:11.813Z,20.62
2019-02-26T19:45:43.696Z,19.27
2019-02-26T19:48:11.297Z,20.20
2019-02-26T19:50:40.175Z,19.73
2019-02-26T19:53:10.741Z,20.72
2019-02-26T19:55:39.844Z,19.55
2019-02-26T19:58:08.845Z,22.80
2019-02-26T20:00:37.856Z,18.73
2019-02-26T20:03:06.846Z,19.50
2019-02-26T20:05:35.926Z,18.73
2019-02-26T20:08:05.951Z,20.52
2019-02-26T20:10:35.140Z,21.40
2019-02-26T20:13:04.288Z,20.50
2019-02-26T20:15:33.442Z,20.88
2019-02-26T20:18:02.369Z,20.55
2019-02-26T20:20:40.213Z,23.62
2019-02-26T20:23:05.131Z,23.62
2019-02-26T20:25:32.958Z,21.17
2019-02-26T20:28:05.259Z,20.10
2019-02-26T20:30:32.732Z,22.15
2019-02-26T20:33:03.948Z,23.77
2019-02-26T20:35:32.666Z,17.77
2019-02-26T20:38:01.682Z,21.10
2019-02-26T20:40:30.643Z,19.67
2019-02-26T20:43:01.813Z,23.87
2019-02-26T20:45:30.473Z,18.37
2019-02-26T20:48:03.638Z,20.15
2019-02-26T20:50:30.045Z,19.35
2019-02-26T20:52:58.908Z,21.70
2019-02-26T20:55:28.009Z,18.70
2019-02-26T20:57:56.942Z,22.42
2019-02-26T21:00:26.043Z,22.65
2019-02-26T21:02:55.072Z,25.37
2019-02-26T21:05:25.078Z,22.13
2019-02-26T21:07:57.905Z,23.02
2019-02-26T21:10:24.891Z,18.17
2019-02-26T21:12:53.781Z,18.80
2019-02-26T21:15:22.741Z,22.60
2019-02-26T21:17:51.727Z,22.70
2019-02-26T21:20:20.715Z,21.15
2019-02-26T21:22:49.654Z,21.82
2019-02-26T21:25:18.647Z,18.92
2019-02-26T21:27:47.486Z,21.60
2019-02-26T21:30:17.384Z,26.45
2019-02-26T21:32:46.314Z,20.20
2019-02-26T21:35:15.314Z,21.35
2019-02-26T21:37:44.295Z,19.87
2019-02-26T21:40:15.866Z,21.85
2019-02-26T21:42:44.210Z,20.10
2019-02-26T21:45:16.133Z,19.90
2019-02-26T21:47:44.178Z,21.02
2019-02-26T21:50:13.486Z,19.90
2019-02-26T21:52:42.851Z,21.87
2019-02-26T21:55:11.887Z,22.07
2019-02-26T21:57:40.815Z,20.77
2019-02-26T22:00:13.279Z,23.12
2019-02-26T22:02:44.190Z,22.22
2019-02-26T22:05:12.953Z,21.50
2019-02-26T22:07:41.948Z,21.60
2019-02-26T22:10:12.118Z,20.52
2019-02-26T22:12:41.187Z,23.65
2019-02-26T22:15:11.110Z,18.30
2019-02-26T22:17:39.940Z,19.85
2019-02-26T22:20:21.565Z,20.52
2019-02-26T22:22:41.108Z,20.92
2019-02-26T22:25:16.016Z,27.05
2019-02-26T22:27:41.044Z,22.52
2019-02-26T22:30:12.470Z,21.97
2019-02-26T22:32:41.382Z,23.20
2019-02-26T22:35:10.365Z,23.02
2019-02-26T22:37:41.380Z,20.40
2019-02-26T22:40:10.440Z,21.60
2019-02-26T22:42:41.366Z,22.62
2019-02-26T22:45:10.564Z,21.40
2019-02-26T22:47:40.583Z,21.02
2019-02-26T22:50:11.160Z,21.10
2019-02-26T22:52:40.156Z,21.95
2019-02-26T22:55:09.231Z,21.65
2019-02-26T22:57:38.199Z,21.65
2019-02-26T23:00:19.445Z,21.33
2019-02-26T23:02:48.421Z,22.00
2019-02-26T23:05:17.450Z,21.40
2019-02-26T23:07:46.433Z,21.73
2019-02-26T23:10:16.557Z,21.80
2019-02-26T23:12:45.544Z,20.65
2019-02-26T23:15:14.531Z,23.30
2019-02-26T23:17:44.764Z,25.70
2019-02-26T23:20:13.815Z,22.82
2019-02-26T23:22:42.892Z,21.55
2019-02-26T23:25:15.034Z,20.62
2019-02-26T23:27:46.151Z,20.37
2019-02-26T23:30:14.874Z,23.18
2019-02-26T23:32:43.870Z,24.40
2019-02-26T23:35:12.866Z,20.35
2019-02-26T23:37:41.972Z,20.92
2019-02-26T23:40:11.422Z,21.40
2019-02-26T23:42:40.335Z,22.05
2019-02-26T23:45:09.477Z,22.75
2019-02-26T23:47:38.566Z,26.68
2019-02-26T23:50:07.573Z,23.75
2019-02-26T23:52:36.856Z,25.10
2019-02-26T23:55:06.241Z,26.25
2019-02-26T23:57:35.184Z,22.22
